sensor_id;sensor_type;location;lat;lon;timestamp;pressure;altitude;pressure_sealevel;temperature;humidity
40730;BME280;26418;50.070;8.436;2023-03-04T00:02:04;100779.78;;;0.81;82.30
40730;BME280;26418;50.070;8.436;2023-03-04T00:04:30;100782.84;;;0.84;82.09
40730;BME280;26418;50.070;8.436;2023-03-04T00:06:55;100789.34;;;0.88;81.92
40730;BME280;26418;50.070;8.436;2023-03-04T00:09:21;100783.38;;;0.93;83.09
40730;BME280;26418;50.070;8.436;2023-03-04T00:11:46;100777.88;;;0.94;83.22
40730;BME280;26418;50.070;8.436;2023-03-04T00:14:12;100793.00;;;0.94;82.65
40730;BME280;26418;50.070;8.436;2023-03-04T00:16:37;100783.25;;;0.81;82.47
40730;BME280;26418;50.070;8.436;2023-03-04T00:19:02;100777.38;;;0.72;82.72
40730;BME280;26418;50.070;8.436;2023-03-04T00:21:28;100792.94;;;0.75;82.42
40730;BME280;26418;50.070;8.436;2023-03-04T00:23:54;100786.25;;;0.59;82.72
40730;BME280;26418;50.070;8.436;2023-03-04T00:26:21;100795.09;;;0.53;83.08
40730;BME280;26418;50.070;8.436;2023-03-04T00:28:46;100802.25;;;0.53;83.17
40730;BME280;26418;50.070;8.436;2023-03-04T00:31:12;100795.91;;;0.47;83.58
40730;BME280;26418;50.070;8.436;2023-03-04T00:33:37;100795.97;;;0.40;83.72
40730;BME280;26418;50.070;8.436;2023-03-04T00:36:05;100795.13;;;0.40;83.79
40730;BME280;26418;50.070;8.436;2023-03-04T00:38:30;100797.63;;;0.35;84.08
40730;BME280;26418;50.070;8.436;2023-03-04T00:40:56;100798.63;;;0.34;84.17
40730;BME280;26418;50.070;8.436;2023-03-04T00:43:21;100787.44;;;0.25;83.98
40730;BME280;26418;50.070;8.436;2023-03-04T00:45:47;100789.47;;;0.23;84.03
40730;BME280;26418;50.070;8.436;2023-03-04T00:48:12;100799.91;;;0.24;84.26
40730;BME280;26418;50.070;8.436;2023-03-04T00:50:37;100789.47;;;0.23;84.18
40730;BME280;26418;50.070;8.436;2023-03-04T00:53:03;100796.81;;;0.27;84.50
40730;BME280;26418;50.070;8.436;2023-03-04T00:55:28;100792.75;;;0.25;84.18
40730;BME280;26418;50.070;8.436;2023-03-04T00:57:54;100788.06;;;0.20;84.32
40730;BME280;26418;50.070;8.436;2023-03-04T01:00:19;100805.63;;;0.21;84.14
40730;BME280;26418;50.070;8.436;2023-03-04T01:02:45;100787.22;;;0.13;84.21
40730;BME280;26418;50.070;8.436;2023-03-04T01:05:11;100797.28;;;0.11;84.46
40730;BME280;26418;50.070;8.436;2023-03-04T01:07:37;100787.47;;;0.05;84.74
40730;BME280;26418;50.070;8.436;2023-03-04T01:10:03;100791.56;;;0.01;84.86
40730;BME280;26418;50.070;8.436;2023-03-04T01:12:29;100792.81;;;-0.02;85.28
40730;BME280;26418;50.070;8.436;2023-03-04T01:14:54;100784.63;;;-0.07;85.10
40730;BME280;26418;50.070;8.436;2023-03-04T01:17:20;100785.47;;;-0.07;85.34
40730;BME280;26418;50.070;8.436;2023-03-04T01:19:45;100785.88;;;-0.10;85.43
40730;BME280;26418;50.070;8.436;2023-03-04T01:22:10;100778.09;;;-0.18;85.42
40730;BME280;26418;50.070;8.436;2023-03-04T01:24:37;100767.47;;;-0.25;85.60
40730;BME280;26418;50.070;8.436;2023-03-04T01:27:03;100777.31;;;-0.19;85.36
40730;BME280;26418;50.070;8.436;2023-03-04T01:29:28;100763.41;;;-0.27;85.47
40730;BME280;26418;50.070;8.436;2023-03-04T01:31:53;100765.66;;;-0.31;85.39
40730;BME280;26418;50.070;8.436;2023-03-04T01:34:19;100746.25;;;-0.38;85.88
40730;BME280;26418;50.070;8.436;2023-03-04T01:36:44;100752.38;;;-0.31;85.59
40730;BME280;26418;50.070;8.436;2023-03-04T01:39:09;100750.72;;;-0.25;85.60
40730;BME280;26418;50.070;8.436;2023-03-04T01:41:35;100752.53;;;-0.06;85.29
40730;BME280;26418;50.070;8.436;2023-03-04T01:44:01;100748.63;;;0.04;85.30
40730;BME280;26418;50.070;8.436;2023-03-04T01:46:27;100753.47;;;0.13;85.00
40730;BME280;26418;50.070;8.436;2023-03-04T01:48:53;100746.91;;;0.16;85.11
40730;BME280;26418;50.070;8.436;2023-03-04T01:51:19;100728.72;;;0.13;84.76
40730;BME280;26418;50.070;8.436;2023-03-04T01:53:47;100745.88;;;0.24;84.86
40730;BME280;26418;50.070;8.436;2023-03-04T01:56:18;100732.75;;;0.29;84.60
40730;BME280;26418;50.070;8.436;2023-03-04T01:59:06;100717.41;;;0.24;84.52
40730;BME280;26418;50.070;8.436;2023-03-04T02:01:31;100733.38;;;0.31;84.24
40730;BME280;26418;50.070;8.436;2023-03-04T02:03:57;100729.22;;;0.35;84.57
40730;BME280;26418;50.070;8.436;2023-03-04T02:06:22;100729.63;;;0.39;84.20
40730;BME280;26418;50.070;8.436;2023-03-04T02:08:47;100718.19;;;0.31;83.51
40730;BME280;26418;50.070;8.436;2023-03-04T02:11:13;100722.09;;;0.36;83.83
40730;BME280;26418;50.070;8.436;2023-03-04T02:13:38;100722.69;;;0.38;83.63
40730;BME280;26418;50.070;8.436;2023-03-04T02:16:03;100723.13;;;0.28;84.07
40730;BME280;26418;50.070;8.436;2023-03-04T02:18:29;100713.97;;;0.17;84.27
40730;BME280;26418;50.070;8.436;2023-03-04T02:21:15;100726.47;;;0.17;84.29
40730;BME280;26418;50.070;8.436;2023-03-04T02:28:40;100727.34;;;0.04;84.87
40730;BME280;26418;50.070;8.436;2023-03-04T02:31:31;100706.94;;;-0.09;84.82
40730;BME280;26418;50.070;8.436;2023-03-04T02:33:57;100714.69;;;-0.08;84.86
40730;BME280;26418;50.070;8.436;2023-03-04T02:36:23;100711.84;;;-0.13;84.59
40730;BME280;26418;50.070;8.436;2023-03-04T02:38:51;100699.38;;;-0.19;85.15
40730;BME280;26418;50.070;8.436;2023-03-04T02:41:19;100705.31;;;-0.17;84.78
40730;BME280;26418;50.070;8.436;2023-03-04T02:43:47;100704.50;;;-0.24;84.63
40730;BME280;26418;50.070;8.436;2023-03-04T02:46:13;100706.16;;;-0.30;84.65
40730;BME280;26418;50.070;8.436;2023-03-04T02:48:38;100709.66;;;-0.43;85.05
40730;BME280;26418;50.070;8.436;2023-03-04T02:51:04;100707.41;;;-0.39;84.90
40730;BME280;26418;50.070;8.436;2023-03-04T02:53:29;100707.00;;;-0.43;84.81
40730;BME280;26418;50.070;8.436;2023-03-04T02:55:54;100698.81;;;-0.41;84.61
40730;BME280;26418;50.070;8.436;2023-03-04T02:58:20;100700.25;;;-0.39;84.66
40730;BME280;26418;50.070;8.436;2023-03-04T03:00:45;100703.09;;;-0.34;84.57
40730;BME280;26418;50.070;8.436;2023-03-04T03:03:10;100696.97;;;-0.34;84.34
40730;BME280;26418;50.070;8.436;2023-03-04T03:05:36;100698.34;;;-0.18;84.34
40730;BME280;26418;50.070;8.436;2023-03-04T03:08:02;100688.56;;;-0.18;83.93
40730;BME280;26418;50.070;8.436;2023-03-04T03:10:28;100684.44;;;-0.13;83.72
40730;BME280;26418;50.070;8.436;2023-03-04T03:12:53;100702.34;;;0.05;83.81
40730;BME280;26418;50.070;8.436;2023-03-04T03:15:19;100699.28;;;0.08;83.34
40730;BME280;26418;50.070;8.436;2023-03-04T03:17:45;100695.81;;;0.07;83.22
40730;BME280;26418;50.070;8.436;2023-03-04T03:20:12;100691.69;;;0.11;83.94
40730;BME280;26418;50.070;8.436;2023-03-04T03:22:38;100696.16;;;0.18;84.08
40730;BME280;26418;50.070;8.436;2023-03-04T03:25:04;100697.16;;;0.23;84.07
40730;BME280;26418;50.070;8.436;2023-03-04T03:27:30;100696.13;;;0.24;84.00
40730;BME280;26418;50.070;8.436;2023-03-04T03:29:55;100703.25;;;0.30;83.73
40730;BME280;26418;50.070;8.436;2023-03-04T03:32:21;100688.31;;;0.29;83.64
40730;BME280;26418;50.070;8.436;2023-03-04T03:34:46;100692.75;;;0.42;83.61
40730;BME280;26418;50.070;8.436;2023-03-04T03:37:12;100702.56;;;0.49;83.31
40730;BME280;26418;50.070;8.436;2023-03-04T03:39:38;100699.47;;;0.52;83.65
40730;BME280;26418;50.070;8.436;2023-03-04T03:42:03;100687.59;;;0.54;83.49
40730;BME280;26418;50.070;8.436;2023-03-04T03:44:29;100679.41;;;0.49;83.30
40730;BME280;26418;50.070;8.436;2023-03-04T03:46:54;100684.88;;;0.61;83.75
40730;BME280;26418;50.070;8.436;2023-03-04T03:49:19;100683.44;;;0.65;83.39
40730;BME280;26418;50.070;8.436;2023-03-04T03:51:45;100682.94;;;0.75;83.29
40730;BME280;26418;50.070;8.436;2023-03-04T03:54:11;100676.81;;;0.74;83.30
40730;BME280;26418;50.070;8.436;2023-03-04T03:56:36;100676.59;;;0.76;82.97
40730;BME280;26418;50.070;8.436;2023-03-04T03:59:01;100683.94;;;0.81;83.18
40730;BME280;26418;50.070;8.436;2023-03-04T04:01:27;100676.09;;;0.86;83.12
40730;BME280;26418;50.070;8.436;2023-03-04T04:03:52;100674.84;;;0.88;83.31
40730;BME280;26418;50.070;8.436;2023-03-04T04:06:18;100671.31;;;0.94;83.09
40730;BME280;26418;50.070;8.436;2023-03-04T04:08:43;100674.13;;;1.00;82.87
40730;BME280;26418;50.070;8.436;2023-03-04T04:11:10;100676.91;;;1.12;82.44
40730;BME280;26418;50.070;8.436;2023-03-04T04:13:35;100674.44;;;1.17;82.12
40730;BME280;26418;50.070;8.436;2023-03-04T04:16:01;100679.66;;;1.23;82.09
40730;BME280;26418;50.070;8.436;2023-03-04T04:18:26;100655.31;;;1.20;81.39
40730;BME280;26418;50.070;8.436;2023-03-04T04:20:51;100672.44;;;1.31;80.65
40730;BME280;26418;50.070;8.436;2023-03-04T04:23:17;100667.28;;;1.36;80.59
40730;BME280;26418;50.070;8.436;2023-03-04T04:25:42;100673.47;;;1.48;79.95
40730;BME280;26418;50.070;8.436;2023-03-04T04:28:08;100677.34;;;1.52;79.84
40730;BME280;26418;50.070;8.436;2023-03-04T04:30:33;100665.06;;;1.51;79.14
40730;BME280;26418;50.070;8.436;2023-03-04T04:32:59;100671.13;;;1.59;79.12
40730;BME280;26418;50.070;8.436;2023-03-04T04:35:26;100663.88;;;1.66;78.55
40730;BME280;26418;50.070;8.436;2023-03-04T04:37:52;100667.13;;;1.68;78.71
40730;BME280;26418;50.070;8.436;2023-03-04T04:40:17;100671.56;;;1.74;78.49
40730;BME280;26418;50.070;8.436;2023-03-04T04:42:43;100664.03;;;1.71;78.34
40730;BME280;26418;50.070;8.436;2023-03-04T04:45:08;100674.84;;;1.76;77.82
40730;BME280;26418;50.070;8.436;2023-03-04T04:47:34;100661.38;;;1.71;78.34
40730;BME280;26418;50.070;8.436;2023-03-04T04:49:59;100668.69;;;1.76;78.65
40730;BME280;26418;50.070;8.436;2023-03-04T04:52:25;100662.69;;;1.80;78.40
40730;BME280;26418;50.070;8.436;2023-03-04T04:54:50;100664.53;;;1.80;78.22
40730;BME280;26418;50.070;8.436;2023-03-04T04:57:15;100664.53;;;1.80;78.32
40730;BME280;26418;50.070;8.436;2023-03-04T04:59:41;100658.41;;;1.79;78.41
40730;BME280;26418;50.070;8.436;2023-03-04T05:02:06;100662.00;;;1.85;78.50
40730;BME280;26418;50.070;8.436;2023-03-04T05:04:31;100665.63;;;1.91;77.81
40730;BME280;26418;50.070;8.436;2023-03-04T05:06:56;100652.53;;;1.89;77.83
40730;BME280;26418;50.070;8.436;2023-03-04T05:09:22;100652.09;;;1.92;77.29
40730;BME280;26418;50.070;8.436;2023-03-04T05:11:48;100647.44;;;1.87;77.19
40730;BME280;26418;50.070;8.436;2023-03-04T05:14:13;100656.16;;;1.95;77.45
40730;BME280;26418;50.070;8.436;2023-03-04T05:16:38;100659.53;;;2.02;77.35
40730;BME280;26418;50.070;8.436;2023-03-04T05:19:03;100649.09;;;2.00;76.51
40730;BME280;26418;50.070;8.436;2023-03-04T05:21:29;100649.25;;;2.06;76.16
40730;BME280;26418;50.070;8.436;2023-03-04T05:23:54;100647.47;;;1.99;76.46
40730;BME280;26418;50.070;8.436;2023-03-04T05:26:20;100649.09;;;2.00;76.44
40730;BME280;26418;50.070;8.436;2023-03-04T05:28:45;100667.13;;;2.05;76.55
40730;BME280;26418;50.070;8.436;2023-03-04T05:31:11;100660.50;;;2.08;75.63
40730;BME280;26418;50.070;8.436;2023-03-04T05:33:36;100654.81;;;2.04;75.94
40730;BME280;26418;50.070;8.436;2023-03-04T05:36:03;100652.13;;;2.04;76.08
40730;BME280;26418;50.070;8.436;2023-03-04T05:38:29;100664.22;;;2.07;76.35
40730;BME280;26418;50.070;8.436;2023-03-04T05:40:57;100661.78;;;2.05;76.08
40730;BME280;26418;50.070;8.436;2023-03-04T05:43:23;100663.03;;;2.02;76.47
40730;BME280;26418;50.070;8.436;2023-03-04T05:45:49;100663.03;;;2.02;76.56
40730;BME280;26418;50.070;8.436;2023-03-04T05:48:14;100658.03;;;2.06;76.50
40730;BME280;26418;50.070;8.436;2023-03-04T05:50:40;100661.31;;;2.08;76.21
40730;BME280;26418;50.070;8.436;2023-03-04T05:53:05;100645.19;;;2.03;75.98
40730;BME280;26418;50.070;8.436;2023-03-04T05:55:30;100654.69;;;2.11;75.82
40730;BME280;26418;50.070;8.436;2023-03-04T05:57:56;100665.28;;;2.17;75.39
40730;BME280;26418;50.070;8.436;2023-03-04T06:00:22;100665.28;;;2.17;75.51
40730;BME280;26418;50.070;8.436;2023-03-04T06:02:47;100665.41;;;2.23;75.45
40730;BME280;26418;50.070;8.436;2023-03-04T06:05:13;100664.53;;;2.29;75.27
40730;BME280;26418;50.070;8.436;2023-03-04T06:07:39;100672.31;;;2.30;75.41
40730;BME280;26418;50.070;8.436;2023-03-04T06:10:05;100652.47;;;2.26;74.94
40730;BME280;26418;50.070;8.436;2023-03-04T06:12:31;100660.00;;;2.29;74.64
40730;BME280;26418;50.070;8.436;2023-03-04T06:14:56;100663.72;;;2.28;74.96
40730;BME280;26418;50.070;8.436;2023-03-04T06:17:21;100664.97;;;2.26;75.02
40730;BME280;26418;50.070;8.436;2023-03-04T06:19:47;100666.63;;;2.27;75.11
40730;BME280;26418;50.070;8.436;2023-03-04T06:22:12;100679.28;;;2.31;75.21
40730;BME280;26418;50.070;8.436;2023-03-04T06:24:38;100686.03;;;2.34;75.07
40730;BME280;26418;50.070;8.436;2023-03-04T06:27:04;100682.06;;;2.36;75.08
40730;BME280;26418;50.070;8.436;2023-03-04T06:29:30;100680.44;;;2.35;75.31
40730;BME280;26418;50.070;8.436;2023-03-04T06:31:55;100685.84;;;2.47;77.30
40730;BME280;26418;50.070;8.436;2023-03-04T06:34:20;100691.75;;;2.49;77.15
40730;BME280;26418;50.070;8.436;2023-03-04T06:36:46;100695.97;;;2.57;76.32
40730;BME280;26418;50.070;8.436;2023-03-04T06:39:11;100693.53;;;2.56;75.42
40730;BME280;26418;50.070;8.436;2023-03-04T06:41:37;100703.50;;;2.60;75.06
40730;BME280;26418;50.070;8.436;2023-03-04T06:44:03;100702.47;;;2.61;74.92
40730;BME280;26418;50.070;8.436;2023-03-04T06:46:29;100699.44;;;2.58;74.60
40730;BME280;26418;50.070;8.436;2023-03-04T06:48:55;100703.75;;;2.59;74.26
40730;BME280;26418;50.070;8.436;2023-03-04T06:51:20;100709.34;;;2.69;74.35
40730;BME280;26418;50.070;8.436;2023-03-04T06:53:46;100695.50;;;2.60;73.87
40730;BME280;26418;50.070;8.436;2023-03-04T06:56:12;100708.16;;;2.65;73.91
40730;BME280;26418;50.070;8.436;2023-03-04T06:58:40;100707.38;;;2.64;73.83
40730;BME280;26418;50.070;8.436;2023-03-04T07:03:38;100712.16;;;2.74;73.42
40730;BME280;26418;50.070;8.436;2023-03-04T07:06:03;100715.19;;;2.78;73.07
40730;BME280;26418;50.070;8.436;2023-03-04T07:08:29;100704.72;;;2.76;73.30
40730;BME280;26418;50.070;8.436;2023-03-04T07:10:54;100705.91;;;2.80;73.03
40730;BME280;26418;50.070;8.436;2023-03-04T07:13:19;100717.75;;;2.85;72.13
40730;BME280;26418;50.070;8.436;2023-03-04T07:15:45;100714.28;;;2.84;72.54
40730;BME280;26418;50.070;8.436;2023-03-04T07:18:10;100731.03;;;2.91;72.49
40730;BME280;26418;50.070;8.436;2023-03-04T07:20:35;100721.72;;;2.94;72.47
40730;BME280;26418;50.070;8.436;2023-03-04T07:23:01;100727.91;;;3.06;70.84
40730;BME280;26418;50.070;8.436;2023-03-04T07:25:26;100726.03;;;3.07;70.99
40730;BME280;26418;50.070;8.436;2023-03-04T07:27:51;100730.59;;;3.06;71.21
40730;BME280;26418;50.070;8.436;2023-03-04T07:30:17;100723.25;;;3.02;70.74
40730;BME280;26418;50.070;8.436;2023-03-04T07:32:42;100734.41;;;3.10;70.92
40730;BME280;26418;50.070;8.436;2023-03-04T07:35:08;100737.19;;;3.15;70.01
40730;BME280;26418;50.070;8.436;2023-03-04T07:37:33;100740.72;;;3.16;70.08
40730;BME280;26418;50.070;8.436;2023-03-04T07:39:58;100734.53;;;3.15;70.64
40730;BME280;26418;50.070;8.436;2023-03-04T07:42:24;100733.63;;;3.22;70.89
40730;BME280;26418;50.070;8.436;2023-03-04T07:44:49;100733.28;;;3.18;70.03
40730;BME280;26418;50.070;8.436;2023-03-04T07:47:14;100738.03;;;3.28;69.34
40730;BME280;26418;50.070;8.436;2023-03-04T07:49:40;100737.00;;;3.29;69.33
40730;BME280;26418;50.070;8.436;2023-03-04T07:52:05;100742.09;;;3.30;69.47
40730;BME280;26418;50.070;8.436;2023-03-04T07:54:31;100742.13;;;3.42;69.56
40730;BME280;26418;50.070;8.436;2023-03-04T07:56:56;100739.00;;;3.45;68.82
40730;BME280;26418;50.070;8.436;2023-03-04T07:59:21;100743.63;;;3.50;69.08
40730;BME280;26418;50.070;8.436;2023-03-04T08:01:47;100738.88;;;3.52;69.09
40730;BME280;26418;50.070;8.436;2023-03-04T08:04:12;100733.28;;;3.54;69.22
40730;BME280;26418;50.070;8.436;2023-03-04T08:06:40;100741.56;;;3.64;69.07
40730;BME280;26418;50.070;8.436;2023-03-04T08:09:07;100744.09;;;3.71;68.52
40730;BME280;26418;50.070;8.436;2023-03-04T08:11:34;100743.38;;;3.75;69.53
40730;BME280;26418;50.070;8.436;2023-03-04T08:14:00;100744.66;;;3.85;68.20
40730;BME280;26418;50.070;8.436;2023-03-04T08:16:26;100745.25;;;3.87;67.80
40730;BME280;26418;50.070;8.436;2023-03-04T08:18:54;100745.50;;;3.85;67.49
40730;BME280;26418;50.070;8.436;2023-03-04T08:21:21;100750.00;;;3.85;67.56
40730;BME280;26418;50.070;8.436;2023-03-04T08:23:47;100756.53;;;3.89;67.29
40730;BME280;26418;50.070;8.436;2023-03-04T08:26:17;100750.94;;;3.90;67.22
40730;BME280;26418;50.070;8.436;2023-03-04T08:28:43;100742.22;;;3.83;67.25
40730;BME280;26418;50.070;8.436;2023-03-04T08:31:11;100749.31;;;3.89;67.81
40730;BME280;26418;50.070;8.436;2023-03-04T08:33:36;100756.50;;;4.01;67.53
40730;BME280;26418;50.070;8.436;2023-03-04T08:36:02;100751.75;;;4.03;67.46
40730;BME280;26418;50.070;8.436;2023-03-04T08:38:27;100754.84;;;4.12;66.62
40730;BME280;26418;50.070;8.436;2023-03-04T08:40:54;100764.50;;;4.13;66.17
40730;BME280;26418;50.070;8.436;2023-03-04T08:43:20;100767.44;;;4.11;65.79
40730;BME280;26418;50.070;8.436;2023-03-04T08:45:46;100754.06;;;4.11;66.44
40730;BME280;26418;50.070;8.436;2023-03-04T08:48:12;100761.00;;;4.12;65.50
40730;BME280;26418;50.070;8.436;2023-03-04T08:50:37;100759.50;;;4.16;65.90
40730;BME280;26418;50.070;8.436;2023-03-04T08:53:02;100766.69;;;4.28;65.93
40730;BME280;26418;50.070;8.436;2023-03-04T08:55:28;100752.84;;;4.19;65.02
40730;BME280;26418;50.070;8.436;2023-03-04T08:57:53;100771.69;;;4.24;65.55
40730;BME280;26418;50.070;8.436;2023-03-04T09:00:19;100763.66;;;4.24;65.10
40730;BME280;26418;50.070;8.436;2023-03-04T09:02:46;100759.72;;;4.27;65.42
40730;BME280;26418;50.070;8.436;2023-03-04T09:05:11;100757.84;;;4.27;65.25
40730;BME280;26418;50.070;8.436;2023-03-04T09:07:37;100759.09;;;4.36;65.92
40730;BME280;26418;50.070;8.436;2023-03-04T09:10:03;100751.97;;;4.42;65.79
40730;BME280;26418;50.070;8.436;2023-03-04T09:12:28;100755.53;;;4.60;65.07
40730;BME280;26418;50.070;8.436;2023-03-04T09:14:54;100740.25;;;4.60;64.53
40730;BME280;26418;50.070;8.436;2023-03-04T09:17:19;100751.25;;;4.76;64.24
40730;BME280;26418;50.070;8.436;2023-03-04T09:19:44;100753.31;;;4.85;63.64
40730;BME280;26418;50.070;8.436;2023-03-04T09:22:10;100755.25;;;4.90;63.84
40730;BME280;26418;50.070;8.436;2023-03-04T09:24:35;100757.03;;;4.84;62.65
40730;BME280;26418;50.070;8.436;2023-03-04T09:27:00;100751.34;;;4.81;63.48
40730;BME280;26418;50.070;8.436;2023-03-04T09:29:26;100753.78;;;4.82;63.84
40730;BME280;26418;50.070;8.436;2023-03-04T09:31:51;100756.78;;;4.86;63.81
40730;BME280;26418;50.070;8.436;2023-03-04T09:34:16;100758.28;;;4.94;63.84
40730;BME280;26418;50.070;8.436;2023-03-04T09:36:42;100735.41;;;4.91;63.71
40730;BME280;26418;50.070;8.436;2023-03-04T09:39:07;100752.34;;;5.09;63.45
40730;BME280;26418;50.070;8.436;2023-03-04T09:41:35;100753.50;;;5.13;63.12
40730;BME280;26418;50.070;8.436;2023-03-04T09:44:05;100753.91;;;5.04;62.28
40730;BME280;26418;50.070;8.436;2023-03-04T09:46:35;100741.13;;;4.95;63.47
40730;BME280;26418;50.070;8.436;2023-03-04T09:49:02;100747.66;;;5.16;68.74
40730;BME280;26418;50.070;8.436;2023-03-04T09:54:09;100759.06;;;5.62;72.33
40730;BME280;26418;50.070;8.436;2023-03-04T09:56:39;100752.13;;;5.83;68.38
40730;BME280;26418;50.070;8.436;2023-03-04T09:59:38;100747.28;;;6.03;64.62
40730;BME280;26418;50.070;8.436;2023-03-04T10:02:12;100736.59;;;5.86;62.26
40730;BME280;26418;50.070;8.436;2023-03-04T10:04:50;100742.69;;;5.81;62.60
40730;BME280;26418;50.070;8.436;2023-03-04T10:07:23;100747.88;;;5.88;61.88
40730;BME280;26418;50.070;8.436;2023-03-04T10:10:47;100746.28;;;5.70;60.46
40730;BME280;26418;50.070;8.436;2023-03-04T10:12:50;100743.56;;;5.47;61.10
40730;BME280;26418;50.070;8.436;2023-03-04T10:15:41;100736.97;;;5.38;61.22
40730;BME280;26418;50.070;8.436;2023-03-04T10:18:30;100741.88;;;5.41;61.88
40730;BME280;26418;50.070;8.436;2023-03-04T10:21:03;100742.44;;;5.43;61.06
40730;BME280;26418;50.070;8.436;2023-03-04T10:23:30;100738.50;;;5.51;61.48
40730;BME280;26418;50.070;8.436;2023-03-04T10:25:59;100740.13;;;5.52;61.50
40730;BME280;26418;50.070;8.436;2023-03-04T10:28:28;100740.56;;;5.44;61.91
40730;BME280;26418;50.070;8.436;2023-03-04T10:31:04;100735.38;;;5.37;61.79
40730;BME280;26418;50.070;8.436;2023-03-04T10:33:38;100740.22;;;5.40;61.57
40730;BME280;26418;50.070;8.436;2023-03-04T10:38:54;100730.97;;;5.31;62.01
40730;BME280;26418;50.070;8.436;2023-03-04T10:41:23;100734.28;;;5.38;62.18
40730;BME280;26418;50.070;8.436;2023-03-04T10:46:38;100722.53;;;5.22;61.56
40730;BME280;26418;50.070;8.436;2023-03-04T10:49:03;100722.38;;;5.29;61.74
40730;BME280;26418;50.070;8.436;2023-03-04T10:51:29;100727.22;;;5.32;61.82
40730;BME280;26418;50.070;8.436;2023-03-04T10:54:29;100718.53;;;5.25;62.21
40730;BME280;26418;50.070;8.436;2023-03-04T10:57:01;100723.75;;;5.31;62.62
40730;BME280;26418;50.070;8.436;2023-03-04T11:02:21;100714.25;;;5.41;61.82
40730;BME280;26418;50.070;8.436;2023-03-04T11:07:23;100707.25;;;5.40;61.89
40730;BME280;26418;50.070;8.436;2023-03-04T11:09:48;100704.31;;;5.41;61.97
40730;BME280;26418;50.070;8.436;2023-03-04T11:12:16;100699.56;;;5.48;62.36
40730;BME280;26418;50.070;8.436;2023-03-04T11:14:48;100697.84;;;5.59;61.90
40730;BME280;26418;50.070;8.436;2023-03-04T11:17:26;100689.00;;;5.59;61.42
40730;BME280;26418;50.070;8.436;2023-03-04T11:23:01;100679.06;;;5.59;61.63
40730;BME280;26418;50.070;8.436;2023-03-04T11:25:34;100695.88;;;5.72;61.44
40730;BME280;26418;50.070;8.436;2023-03-04T11:28:23;100696.75;;;5.77;61.51
40730;BME280;26418;50.070;8.436;2023-03-04T11:31:02;100698.88;;;5.75;61.81
40730;BME280;26418;50.070;8.436;2023-03-04T11:33:38;100696.81;;;5.82;61.54
40730;BME280;26418;50.070;8.436;2023-03-04T11:36:22;100690.25;;;5.73;60.86
40730;BME280;26418;50.070;8.436;2023-03-04T11:38:50;100694.38;;;5.81;61.33
40730;BME280;26418;50.070;8.436;2023-03-04T11:41:20;100688.44;;;5.79;60.90
40730;BME280;26418;50.070;8.436;2023-03-04T11:43:46;100691.63;;;5.76;61.37
40730;BME280;26418;50.070;8.436;2023-03-04T11:56:56;100678.56;;;5.62;61.86
40730;BME280;26418;50.070;8.436;2023-03-04T12:02:16;100674.25;;;5.61;61.64
40730;BME280;26418;50.070;8.436;2023-03-04T12:04:57;100671.56;;;5.61;61.42
40730;BME280;26418;50.070;8.436;2023-03-04T12:10:29;100667.56;;;5.64;61.30
40730;BME280;26418;50.070;8.436;2023-03-04T12:31:36;100638.63;;;6.10;60.32
40730;BME280;26418;50.070;8.436;2023-03-04T12:34:31;100626.38;;;6.20;62.49
40730;BME280;26418;50.070;8.436;2023-03-04T12:47:58;100620.53;;;6.93;57.98
40730;BME280;26418;50.070;8.436;2023-03-04T12:50:51;100606.97;;;7.15;57.29
40730;BME280;26418;50.070;8.436;2023-03-04T12:53:28;100610.53;;;7.31;55.92
40730;BME280;26418;50.070;8.436;2023-03-04T12:55:56;100611.09;;;7.33;56.05
40730;BME280;26418;50.070;8.436;2023-03-04T12:58:32;100598.47;;;7.34;55.49
40730;BME280;26418;50.070;8.436;2023-03-04T13:02:01;100601.19;;;7.44;55.13
40730;BME280;26418;50.070;8.436;2023-03-04T13:04:04;100597.47;;;7.50;55.12
40730;BME280;26418;50.070;8.436;2023-03-04T13:06:45;100594.00;;;7.60;55.14
40730;BME280;26418;50.070;8.436;2023-03-04T13:09:36;100589.47;;;7.76;56.22
40730;BME280;26418;50.070;8.436;2023-03-04T13:14:31;100575.22;;;7.86;54.76
40730;BME280;26418;50.070;8.436;2023-03-04T13:17:00;100583.34;;;7.96;54.29
40730;BME280;26418;50.070;8.436;2023-03-04T13:25:37;100570.84;;;7.64;57.33
40730;BME280;26418;50.070;8.436;2023-03-04T13:48:44;100544.47;;;7.61;55.32
40730;BME280;26418;50.070;8.436;2023-03-04T13:51:39;100546.31;;;7.50;56.11
40730;BME280;26418;50.070;8.436;2023-03-04T13:54:29;100549.75;;;7.40;56.06
40730;BME280;26418;50.070;8.436;2023-03-04T14:02:13;100553.47;;;7.24;57.21
40730;BME280;26418;50.070;8.436;2023-03-04T14:05:01;100554.03;;;7.26;57.40
40730;BME280;26418;50.070;8.436;2023-03-04T14:07:32;100547.25;;;7.18;57.52
40730;BME280;26418;50.070;8.436;2023-03-04T14:12:36;100547.75;;;7.10;57.87
40730;BME280;26418;50.070;8.436;2023-03-04T14:15:26;100538.81;;;6.99;57.95
40730;BME280;26418;50.070;8.436;2023-03-04T14:17:55;100525.28;;;6.79;58.78
40730;BME280;26418;50.070;8.436;2023-03-04T14:20:36;100536.25;;;6.77;58.97
40730;BME280;26418;50.070;8.436;2023-03-04T14:23:23;100530.09;;;6.76;59.35
40730;BME280;26418;50.070;8.436;2023-03-04T14:25:49;100523.38;;;6.74;59.42
40730;BME280;26418;50.070;8.436;2023-03-04T14:28:18;100533.84;;;6.75;59.48
40730;BME280;26418;50.070;8.436;2023-03-04T14:30:55;100521.44;;;6.69;59.73
40730;BME280;26418;50.070;8.436;2023-03-04T14:33:23;100519.06;;;6.73;59.54
40730;BME280;26418;50.070;8.436;2023-03-04T14:35:52;100513.41;;;6.74;59.23
40730;BME280;26418;50.070;8.436;2023-03-04T14:38:29;100511.84;;;6.79;59.49
40730;BME280;26418;50.070;8.436;2023-03-04T14:43:38;100509.44;;;6.82;60.65
40730;BME280;26418;50.070;8.436;2023-03-04T14:46:07;100511.09;;;6.93;60.20
40730;BME280;26418;50.070;8.436;2023-03-04T14:48:36;100506.78;;;6.92;59.86
40730;BME280;26418;50.070;8.436;2023-03-04T14:51:02;100495.22;;;6.87;59.87
40730;BME280;26418;50.070;8.436;2023-03-04T14:53:32;100501.16;;;6.94;60.54
40730;BME280;26418;50.070;8.436;2023-03-04T14:56:00;100505.19;;;6.91;60.07